createdAt,value
2023-04-18T00:01:01.759Z,62.88
2023-04-18T00:03:29.992Z,64.06
2023-04-18T00:05:57.929Z,64.55
2023-04-18T00:08:24.233Z,62.66
2023-04-18T00:10:50.554Z,63.26
2023-04-18T00:13:18.217Z,63.61
2023-04-18T00:15:46.164Z,63.80
2023-04-18T00:18:16.961Z,63.92
2023-04-18T00:20:43.314Z,63.94
2023-04-18T00:23:13.763Z,64.76
2023-04-18T00:25:40.899Z,64.87
2023-04-18T00:28:07.214Z,64.57
2023-04-18T00:30:33.609Z,63.73
2023-04-18T00:33:00.289Z,63.53
2023-04-18T00:35:26.733Z,63.00
2023-04-18T00:37:53.057Z,62.76
2023-04-18T00:40:19.556Z,62.54
2023-04-18T00:42:45.829Z,63.52
2023-04-18T00:45:12.173Z,63.10
2023-04-18T00:47:38.664Z,62.66
2023-04-18T00:50:05.874Z,62.51
2023-04-18T00:52:34.706Z,63.42
2023-04-18T00:55:02.566Z,63.22
2023-04-18T00:57:29.647Z,64.14
2023-04-18T00:59:56.107Z,64.32
2023-04-18T01:02:22.791Z,63.57
2023-04-18T01:04:49.300Z,64.81
2023-04-18T01:07:15.661Z,64.50
2023-04-18T01:09:42.051Z,63.66
2023-04-18T01:12:08.337Z,65.26
2023-04-18T01:14:34.602Z,64.42
2023-04-18T01:17:01.443Z,64.57
2023-04-18T01:19:27.683Z,64.73
2023-04-18T01:21:54.237Z,65.03
2023-04-18T01:24:20.542Z,65.99
2023-04-18T01:26:49.572Z,66.26
2023-04-18T01:29:15.889Z,65.98
2023-04-18T01:31:42.376Z,66.56
2023-04-18T01:34:08.776Z,67.25
2023-04-18T01:36:36.493Z,67.20
2023-04-18T01:39:03.076Z,67.10
2023-04-18T01:41:32.271Z,67.73
2023-04-18T01:43:59.347Z,67.60
2023-04-18T01:46:25.717Z,66.82
2023-04-18T01:48:52.035Z,67.04
2023-04-18T01:51:18.466Z,67.25
2023-04-18T01:53:44.767Z,67.46
2023-04-18T01:56:11.127Z,66.76
2023-04-18T01:58:37.476Z,68.47
2023-04-18T02:01:04.079Z,68.71
2023-04-18T02:03:30.694Z,67.88
2023-04-18T02:05:57.068Z,69.40
2023-04-18T02:08:23.379Z,69.06
2023-04-18T02:10:49.689Z,68.83
2023-04-18T02:13:16.010Z,69.25
2023-04-18T02:15:45.072Z,69.17
2023-04-18T02:18:11.960Z,69.41
2023-04-18T02:20:38.348Z,68.86
2023-04-18T02:23:05.418Z,69.66
2023-04-18T02:25:31.756Z,70.46
2023-04-18T02:27:58.121Z,70.15
2023-04-18T02:30:25.647Z,69.68
2023-04-18T02:32:53.300Z,70.66
2023-04-18T02:35:20.810Z,70.35
2023-04-18T02:37:47.085Z,70.64
2023-04-18T02:40:13.601Z,71.23
2023-04-18T02:42:39.933Z,71.53
2023-04-18T02:45:07.306Z,70.55
2023-04-18T02:47:43.523Z,70.72
2023-04-18T02:50:17.868Z,70.92
2023-04-18T02:52:44.177Z,70.61
2023-04-18T02:55:10.535Z,70.76
2023-04-18T02:57:36.830Z,70.87
2023-04-18T03:00:03.426Z,71.29
2023-04-18T03:02:29.822Z,71.36
2023-04-18T03:04:56.524Z,70.85
2023-04-18T03:07:22.868Z,71.15
2023-04-18T03:09:49.160Z,70.70
2023-04-18T03:12:15.433Z,71.78
2023-04-18T03:14:41.752Z,71.37
2023-04-18T03:17:08.051Z,71.26
2023-04-18T03:19:34.360Z,72.06
2023-04-18T03:22:00.616Z,72.00
2023-04-18T03:24:26.901Z,72.08
2023-04-18T03:26:53.236Z,71.73
2023-04-18T03:29:19.552Z,72.15
2023-04-18T03:31:46.014Z,71.86
2023-04-18T03:34:12.750Z,73.14
2023-04-18T03:36:39.221Z,72.52
2023-04-18T03:39:05.602Z,71.98
2023-04-18T03:41:31.881Z,72.79
2023-04-18T03:43:58.132Z,72.60
2023-04-18T03:46:24.674Z,72.35
2023-04-18T03:48:51.011Z,72.71
2023-04-18T03:51:17.653Z,73.04
2023-04-18T03:53:43.932Z,72.65
2023-04-18T03:56:10.466Z,73.22
2023-04-18T03:58:36.903Z,73.18
2023-04-18T04:01:03.439Z,73.69
2023-04-18T04:03:30.009Z,73.05
2023-04-18T04:05:56.719Z,73.10
2023-04-18T04:08:23.049Z,73.06
2023-04-18T04:10:49.307Z,73.34
2023-04-18T04:13:15.691Z,73.75
2023-04-18T04:15:41.993Z,73.78
2023-04-18T04:18:08.984Z,73.37
2023-04-18T04:20:35.438Z,73.95
2023-04-18T04:23:02.029Z,73.55
2023-04-18T04:25:33.137Z,74.08
2023-04-18T04:28:02.564Z,74.08
2023-04-18T04:30:28.880Z,73.56
2023-04-18T04:32:55.222Z,74.40
2023-04-18T04:35:21.913Z,73.89
2023-04-18T04:37:48.372Z,74.33
2023-04-18T04:40:15.598Z,74.36
2023-04-18T04:42:42.222Z,73.69
2023-04-18T04:45:09.517Z,74.72
2023-04-18T04:47:36.585Z,74.51
2023-04-18T04:50:04.221Z,74.31
2023-04-18T04:52:32.670Z,74.31
2023-04-18T04:54:59.010Z,74.84
2023-04-18T04:57:25.422Z,74.74
2023-04-18T04:59:51.706Z,75.35
2023-04-18T05:02:18.109Z,75.38
2023-04-18T05:04:44.418Z,74.76
2023-04-18T05:07:10.838Z,74.48
2023-04-18T05:09:37.107Z,75.31
2023-04-18T05:12:03.698Z,74.87
2023-04-18T05:14:30.877Z,74.81
2023-04-18T05:16:57.464Z,74.88
2023-04-18T05:19:23.852Z,74.96
2023-04-18T05:21:50.158Z,74.84
2023-04-18T05:24:16.664Z,74.18
2023-04-18T05:26:43.282Z,74.64
2023-04-18T05:29:09.900Z,74.08
2023-04-18T05:31:36.350Z,73.94
2023-04-18T05:34:02.679Z,73.59
2023-04-18T05:36:29.012Z,73.03
2023-04-18T05:38:55.286Z,73.01
2023-04-18T05:41:21.597Z,72.75
2023-04-18T05:44:01.762Z,73.34
2023-04-18T05:46:31.568Z,72.92
2023-04-18T05:48:58.070Z,73.48
2023-04-18T05:51:24.393Z,72.98
2023-04-18T05:53:51.048Z,72.68
2023-04-18T05:56:17.427Z,72.58
2023-04-18T05:58:45.482Z,72.95
2023-04-18T06:01:14.099Z,72.66
2023-04-18T06:03:41.508Z,72.12
2023-04-18T06:06:08.193Z,71.67
2023-04-18T06:08:34.484Z,71.60
2023-04-18T06:11:00.850Z,72.43
2023-04-18T06:13:27.128Z,71.23
2023-04-18T06:15:53.563Z,71.35
2023-04-18T06:18:19.887Z,71.09
2023-04-18T06:20:46.243Z,71.25
2023-04-18T06:23:12.617Z,72.35
2023-04-18T06:25:42.044Z,72.06
2023-04-18T06:28:09.059Z,71.90
2023-04-18T06:30:35.797Z,71.02
2023-04-18T06:33:02.270Z,70.38
2023-04-18T06:35:30.732Z,71.21
2023-04-18T06:37:57.428Z,70.97
2023-04-18T06:40:23.718Z,70.93
2023-04-18T06:42:50.033Z,70.87
2023-04-18T06:45:16.441Z,70.67
2023-04-18T06:47:42.944Z,69.59
2023-04-18T06:50:09.605Z,70.65
2023-04-18T06:52:40.418Z,71.32
2023-04-18T06:55:08.202Z,71.06
2023-04-18T06:57:34.750Z,71.50
2023-04-18T07:00:01.089Z,70.32
2023-04-18T07:02:27.508Z,70.32
2023-04-18T07:04:53.869Z,69.86
2023-04-18T07:07:20.399Z,69.27
2023-04-18T07:09:46.681Z,69.19
2023-04-18T07:12:12.976Z,69.55
2023-04-18T07:14:39.257Z,68.53
2023-04-18T07:17:05.730Z,69.78
2023-04-18T07:19:32.051Z,69.68
2023-04-18T07:21:58.385Z,69.69
2023-04-18T07:24:24.728Z,69.24
2023-04-18T07:26:53.806Z,69.22
2023-04-18T07:29:21.284Z,69.00
2023-04-18T07:31:48.224Z,69.85
2023-04-18T07:34:15.024Z,69.00
2023-04-18T07:36:42.375Z,69.19
2023-04-18T07:39:08.996Z,68.42
2023-04-18T07:41:35.624Z,68.69
2023-04-18T07:44:02.237Z,69.02
2023-04-18T07:46:28.968Z,69.07
2023-04-18T07:48:55.279Z,69.46
2023-04-18T07:51:22.047Z,68.47
2023-04-18T07:53:48.346Z,68.32
2023-04-18T07:56:14.964Z,68.74
2023-04-18T07:58:41.355Z,68.37
2023-04-18T08:01:08.857Z,68.86
2023-04-18T08:03:37.128Z,68.78
2023-04-18T08:06:03.729Z,69.12
2023-04-18T08:08:30.107Z,69.09
2023-04-18T08:10:56.461Z,68.10
2023-04-18T08:13:22.800Z,67.99
2023-04-18T08:15:49.116Z,69.11
2023-04-18T08:18:15.472Z,68.67
2023-04-18T08:20:41.848Z,68.62
2023-04-18T08:23:11.151Z,68.09
2023-04-18T08:25:38.774Z,68.71
2023-04-18T08:28:05.299Z,68.75
2023-04-18T08:30:31.753Z,67.71
2023-04-18T08:32:59.665Z,68.11
2023-04-18T08:35:26.243Z,67.81
2023-04-18T08:37:52.791Z,67.40
2023-04-18T08:40:20.570Z,68.20
2023-04-18T08:42:47.000Z,67.69
2023-04-18T08:45:14.123Z,67.01
2023-04-18T08:47:43.310Z,66.76
2023-04-18T08:50:10.559Z,66.05
2023-04-18T08:52:39.694Z,66.50
2023-04-18T08:55:07.212Z,65.17
2023-04-18T08:57:35.768Z,65.71
2023-04-18T09:00:02.101Z,65.03
2023-04-18T09:02:38.902Z,65.12
2023-04-18T09:05:16.532Z,64.76
2023-04-18T09:07:43.091Z,65.20
2023-04-18T09:10:10.063Z,64.17
2023-04-18T09:12:50.099Z,64.63
2023-04-18T09:15:20.176Z,64.66
2023-04-18T09:17:51.126Z,63.89
2023-04-18T09:20:30.622Z,61.55
2023-04-18T09:22:57.961Z,56.91
2023-04-18T09:25:40.810Z,50.90
2023-04-18T09:28:27.832Z,47.11
2023-04-18T09:30:56.073Z,44.66
2023-04-18T09:33:32.350Z,43.88
2023-04-18T09:36:19.140Z,44.18
2023-04-18T09:38:46.050Z,44.59
2023-04-18T09:41:15.566Z,42.53
2023-04-18T09:43:41.896Z,40.02
2023-04-18T09:46:09.420Z,41.96
2023-04-18T09:48:35.990Z,40.68
2023-04-18T09:51:06.046Z,41.05
2023-04-18T09:53:34.761Z,43.49
2023-04-18T09:56:02.567Z,43.64
2023-04-18T09:58:32.817Z,44.88
2023-04-18T10:00:59.182Z,45.22
2023-04-18T10:03:32.713Z,47.60
2023-04-18T10:05:59.160Z,49.97
2023-04-18T10:08:27.133Z,49.47
2023-04-18T10:10:55.814Z,50.36
2023-04-18T10:13:23.774Z,51.66
2023-04-18T10:15:52.294Z,49.76
2023-04-18T10:18:23.315Z,48.87
2023-04-18T10:20:49.822Z,48.01
2023-04-18T10:23:31.496Z,46.45
2023-04-18T10:25:58.969Z,45.78
2023-04-18T10:28:26.475Z,45.14
2023-04-18T10:30:56.224Z,44.70
2023-04-18T10:36:22.400Z,47.26
2023-04-18T10:39:00.322Z,47.16
2023-04-18T10:41:29.160Z,48.01
2023-04-18T10:44:08.697Z,49.97
2023-04-18T10:46:40.462Z,50.10
2023-04-18T10:49:18.279Z,50.37
2023-04-18T10:51:46.476Z,50.54
2023-04-18T10:54:19.710Z,50.09
2023-04-18T10:56:56.934Z,50.51
2023-04-18T10:59:25.045Z,49.60
2023-04-18T11:01:57.493Z,49.75
2023-04-18T11:04:25.367Z,48.89
2023-04-18T11:06:56.042Z,48.62
2023-04-18T11:09:23.048Z,49.50
2023-04-18T11:12:06.476Z,49.39
2023-04-18T11:14:46.044Z,50.20
2023-04-18T11:17:16.190Z,49.88
2023-04-18T11:19:43.224Z,49.47
2023-04-18T11:22:09.754Z,47.10
2023-04-18T11:24:36.566Z,45.18
2023-04-18T11:27:09.346Z,45.51
2023-04-18T11:29:35.827Z,44.91
2023-04-18T11:32:02.259Z,44.44
2023-04-18T11:34:30.419Z,45.03
2023-04-18T11:36:57.560Z,44.85
2023-04-18T11:39:23.976Z,45.35
2023-04-18T11:41:50.671Z,46.50
2023-04-18T11:44:18.550Z,46.97
2023-04-18T11:46:44.979Z,47.04
2023-04-18T11:49:27.795Z,49.08
2023-04-18T11:51:54.190Z,48.90
2023-04-18T11:54:41.074Z,49.73
2023-04-18T11:57:20.027Z,49.62
2023-04-18T11:59:51.162Z,48.32
2023-04-18T12:02:17.687Z,48.16
2023-04-18T12:04:53.151Z,48.37
2023-04-18T12:07:34.655Z,47.66
2023-04-18T12:10:01.294Z,48.79
2023-04-18T12:12:27.693Z,48.54
2023-04-18T12:15:08.583Z,48.96
2023-04-18T12:17:36.563Z,48.57
2023-04-18T12:20:05.183Z,47.95
2023-04-18T12:22:47.241Z,50.41
2023-04-18T12:25:27.368Z,48.51
2023-04-18T12:27:57.742Z,49.60
2023-04-18T12:30:29.516Z,48.84
2023-04-18T12:32:57.961Z,49.07
2023-04-18T12:35:25.569Z,48.08
2023-04-18T12:37:54.437Z,48.54
2023-04-18T12:40:22.756Z,48.30
2023-04-18T12:42:50.571Z,49.28
2023-04-18T12:45:17.876Z,49.98
2023-04-18T12:47:46.524Z,50.18
2023-04-18T12:50:21.571Z,48.42
2023-04-18T12:52:48.380Z,48.91
2023-04-18T12:55:15.493Z,48.93
2023-04-18T12:57:43.605Z,48.53
2023-04-18T13:00:12.778Z,49.79
2023-04-18T13:02:44.146Z,49.37
2023-04-18T13:05:12.485Z,48.86
2023-04-18T13:07:40.621Z,48.45
2023-04-18T13:10:09.000Z,46.43
2023-04-18T13:12:35.942Z,47.35
2023-04-18T13:15:03.287Z,46.83
2023-04-18T13:17:29.692Z,45.73
2023-04-18T13:19:56.142Z,46.97
2023-04-18T13:22:22.554Z,47.56
2023-04-18T13:24:48.861Z,46.93
2023-04-18T13:27:15.286Z,47.58
2023-04-18T13:29:43.356Z,48.55
2023-04-18T13:32:10.306Z,48.88
2023-04-18T13:34:42.084Z,48.75
2023-04-18T13:37:08.544Z,48.87
2023-04-18T13:39:34.855Z,48.85
2023-04-18T13:42:04.470Z,49.23
2023-04-18T13:44:31.337Z,48.11
2023-04-18T13:46:57.962Z,48.29
2023-04-18T13:49:24.284Z,47.55
2023-04-18T13:51:53.369Z,47.01
2023-04-18T13:54:20.066Z,47.15
2023-04-18T13:56:46.378Z,48.02
2023-04-18T13:59:13.086Z,47.53
2023-04-18T14:01:39.793Z,47.20
2023-04-18T14:04:06.447Z,47.42
2023-04-18T14:06:33.130Z,47.74
2023-04-18T14:08:59.435Z,47.26
2023-04-18T14:11:25.793Z,47.32
2023-04-18T14:13:52.132Z,48.37
2023-04-18T14:16:19.169Z,46.14
2023-04-18T14:18:46.086Z,45.80
2023-04-18T14:21:12.386Z,44.51
2023-04-18T14:23:38.651Z,42.57
2023-04-18T14:26:05.287Z,42.60
2023-04-18T14:28:31.994Z,42.20
2023-04-18T14:31:01.894Z,41.74
2023-04-18T14:33:28.999Z,41.33
2023-04-18T14:35:55.259Z,42.32
2023-04-18T14:38:21.649Z,44.01
2023-04-18T14:40:48.077Z,43.89
2023-04-18T14:43:14.334Z,45.20
2023-04-18T14:45:40.709Z,45.21
2023-04-18T14:48:08.781Z,45.60
2023-04-18T14:50:38.421Z,45.31
2023-04-18T14:53:06.094Z,46.29
2023-04-18T14:55:33.976Z,46.14
2023-04-18T14:58:01.078Z,46.18
2023-04-18T15:00:28.185Z,46.68
2023-04-18T15:02:54.891Z,46.40
2023-04-18T15:05:23.875Z,46.41
2023-04-18T15:07:51.804Z,46.82
2023-04-18T15:10:19.564Z,46.09
2023-04-18T15:12:48.901Z,46.27
2023-04-18T15:15:15.292Z,47.31
2023-04-18T15:17:41.841Z,44.35
2023-04-18T15:20:09.309Z,43.47
2023-04-18T15:22:36.066Z,44.15
2023-04-18T15:25:04.201Z,43.98
2023-04-18T15:27:30.595Z,43.87
2023-04-18T15:29:56.901Z,42.71
2023-04-18T15:32:23.315Z,43.48
2023-04-18T15:34:49.912Z,42.73
2023-04-18T15:37:16.160Z,42.93
2023-04-18T15:39:42.480Z,42.61
2023-04-18T15:42:08.778Z,43.06
2023-04-18T15:44:35.040Z,44.95
2023-04-18T15:47:01.840Z,43.65
2023-04-18T15:49:28.261Z,44.35
2023-04-18T15:51:54.547Z,43.83
2023-04-18T15:54:20.917Z,45.12
2023-04-18T15:56:47.186Z,44.98
2023-04-18T15:59:13.531Z,45.78
2023-04-18T16:01:39.973Z,45.64
2023-04-18T16:04:06.427Z,45.58
2023-04-18T16:06:33.574Z,45.96
2023-04-18T16:08:59.876Z,46.14
2023-04-18T16:11:26.371Z,45.08
2023-04-18T16:13:53.018Z,45.55
2023-04-18T16:16:19.336Z,46.13
2023-04-18T16:18:45.740Z,46.59
2023-04-18T16:21:16.038Z,46.62
2023-04-18T16:23:42.966Z,46.57
2023-04-18T16:26:09.250Z,47.78
2023-04-18T16:28:38.259Z,47.55
2023-04-18T16:31:05.896Z,47.42
2023-04-18T16:33:32.447Z,46.25
2023-04-18T16:35:59.887Z,45.24
2023-04-18T16:38:27.266Z,45.74
2023-04-18T16:40:57.543Z,45.59
2023-04-18T16:43:26.663Z,45.31
2023-04-18T16:45:56.206Z,45.65
2023-04-18T16:48:23.117Z,46.32
2023-04-18T16:50:49.811Z,47.79
2023-04-18T16:53:16.561Z,47.56
2023-04-18T16:55:43.320Z,47.44
2023-04-18T16:58:09.739Z,48.08
2023-04-18T17:00:38.395Z,46.91
2023-04-18T17:03:07.233Z,47.54
2023-04-18T17:05:33.672Z,47.80
2023-04-18T17:08:00.286Z,48.98
2023-04-18T17:10:28.996Z,48.33
2023-04-18T17:12:55.436Z,49.38
2023-04-18T17:15:21.963Z,49.77
2023-04-18T17:17:48.344Z,50.49
2023-04-18T17:20:15.923Z,50.10
2023-04-18T17:22:42.275Z,50.00
2023-04-18T17:25:09.197Z,50.18
2023-04-18T17:27:35.555Z,50.59
2023-04-18T17:30:01.854Z,50.95
2023-04-18T17:32:28.479Z,50.34
2023-04-18T17:34:55.641Z,51.17
2023-04-18T17:37:22.301Z,50.95
2023-04-18T17:39:49.211Z,51.70
2023-04-18T17:42:15.766Z,51.91
2023-04-18T17:44:42.008Z,52.04
2023-04-18T17:47:08.431Z,51.97
2023-04-18T17:49:34.964Z,52.34
2023-04-18T17:52:01.680Z,53.40
2023-04-18T17:54:28.048Z,52.84
2023-04-18T17:56:54.306Z,53.70
2023-04-18T17:59:20.571Z,53.45
2023-04-18T18:01:47.026Z,53.53
2023-04-18T18:04:13.765Z,53.81
2023-04-18T18:06:41.951Z,54.31
2023-04-18T18:09:08.304Z,53.66
2023-04-18T18:11:35.149Z,54.21
2023-04-18T18:14:01.598Z,54.27
2023-04-18T18:16:27.969Z,54.58
2023-04-18T18:18:54.607Z,54.82
2023-04-18T18:21:20.946Z,55.03
2023-04-18T18:23:47.274Z,55.18
2023-04-18T18:26:13.575Z,55.56
2023-04-18T18:28:39.911Z,55.94
2023-04-18T18:31:06.224Z,55.60
2023-04-18T18:33:32.527Z,56.02
2023-04-18T18:35:59.482Z,56.55
2023-04-18T18:38:25.817Z,56.47
2023-04-18T18:40:52.110Z,56.26
2023-04-18T18:43:18.442Z,56.74
2023-04-18T18:45:44.767Z,57.23
2023-04-18T18:48:11.524Z,57.73
2023-04-18T18:50:37.820Z,57.16
2023-04-18T18:53:05.932Z,57.98
2023-04-18T18:55:32.244Z,58.43
2023-04-18T18:57:58.574Z,58.40
2023-04-18T19:00:25.009Z,58.09
2023-04-18T19:02:51.546Z,58.51
2023-04-18T19:05:17.889Z,58.58
2023-04-18T19:07:44.240Z,59.26
2023-04-18T19:10:11.116Z,58.94
2023-04-18T19:12:38.101Z,59.61
2023-04-18T19:15:05.325Z,59.00
2023-04-18T19:17:31.967Z,59.27
2023-04-18T19:19:59.182Z,59.22
2023-04-18T19:22:25.493Z,59.07
2023-04-18T19:24:51.990Z,59.51
2023-04-18T19:27:18.489Z,59.62
2023-04-18T19:29:44.782Z,59.42
2023-04-18T19:32:11.140Z,60.20
2023-04-18T19:34:37.666Z,60.15
2023-04-18T19:37:04.514Z,60.90
2023-04-18T19:39:31.005Z,59.98
2023-04-18T19:41:57.298Z,59.89
2023-04-18T19:44:23.619Z,60.55
2023-04-18T19:46:49.880Z,60.64
2023-04-18T19:49:16.410Z,60.44
2023-04-18T19:51:42.777Z,60.52
2023-04-18T19:54:09.122Z,60.48
2023-04-18T19:56:35.556Z,60.86
2023-04-18T19:59:02.306Z,61.38
2023-04-18T20:01:28.632Z,60.89
2023-04-18T20:03:58.303Z,61.32
2023-04-18T20:06:26.518Z,61.19
2023-04-18T20:08:55.776Z,61.25
2023-04-18T20:11:22.205Z,61.42
2023-04-18T20:13:48.897Z,62.02
2023-04-18T20:16:16.712Z,61.88
2023-04-18T20:18:44.260Z,61.58
2023-04-18T20:21:11.297Z,62.20
2023-04-18T20:23:38.023Z,61.78
2023-04-18T20:26:04.538Z,61.97
2023-04-18T20:28:31.283Z,62.67
2023-04-18T20:30:57.605Z,62.26
2023-04-18T20:33:23.929Z,62.44
2023-04-18T20:35:50.262Z,63.13
2023-04-18T20:38:16.520Z,63.06
2023-04-18T20:40:44.710Z,62.99
2023-04-18T20:43:12.588Z,62.75
2023-04-18T20:45:42.560Z,63.00
2023-04-18T20:48:09.546Z,62.73
2023-04-18T20:50:35.870Z,62.79
2023-04-18T20:53:03.958Z,63.43
2023-04-18T20:55:30.356Z,63.44
2023-04-18T20:57:56.706Z,63.27
2023-04-18T21:00:23.219Z,63.80
2023-04-18T21:02:49.807Z,64.14
2023-04-18T21:05:16.145Z,64.00
2023-04-18T21:07:44.023Z,64.56
2023-04-18T21:10:11.573Z,63.96
2023-04-18T21:12:37.834Z,64.18
2023-04-18T21:15:05.387Z,64.07
2023-04-18T21:17:31.730Z,64.28
2023-04-18T21:19:58.015Z,64.07
2023-04-18T21:22:24.288Z,64.82
2023-04-18T21:24:50.575Z,64.94
2023-04-18T21:27:16.925Z,64.69
2023-04-18T21:29:43.256Z,64.78
2023-04-18T21:32:09.585Z,64.47
2023-04-18T21:34:35.862Z,64.69
2023-04-18T21:37:02.333Z,64.63
2023-04-18T21:39:28.602Z,64.51
2023-04-18T21:41:54.881Z,64.57
2023-04-18T21:44:21.233Z,64.37
2023-04-18T21:46:47.510Z,65.21
2023-04-18T21:49:13.900Z,64.91
2023-04-18T21:51:40.274Z,65.07
2023-04-18T21:54:07.630Z,65.35
2023-04-18T21:56:34.097Z,64.82
2023-04-18T21:59:00.442Z,65.16
2023-04-18T22:01:26.804Z,65.63
2023-04-18T22:03:53.451Z,65.85
2023-04-18T22:06:20.735Z,65.83
2023-04-18T22:08:48.065Z,65.84
2023-04-18T22:11:15.481Z,65.55
2023-04-18T22:13:44.725Z,65.18
2023-04-18T22:16:11.147Z,65.99
2023-04-18T22:18:38.161Z,65.31
2023-04-18T22:21:04.674Z,65.26
2023-04-18T22:23:31.015Z,65.83
2023-04-18T22:25:57.323Z,65.27
2023-04-18T22:28:23.617Z,66.02
2023-04-18T22:30:50.742Z,65.40
2023-04-18T22:33:17.040Z,65.10
2023-04-18T22:35:43.421Z,65.44
2023-04-18T22:38:10.206Z,65.49
2023-04-18T22:40:36.537Z,65.05
2023-04-18T22:43:02.805Z,65.71
2023-04-18T22:45:29.120Z,65.71
2023-04-18T22:47:55.466Z,66.06
2023-04-18T22:50:21.878Z,65.68
2023-04-18T22:52:48.184Z,65.26
2023-04-18T22:55:16.389Z,66.04
2023-04-18T22:57:42.741Z,66.41
2023-04-18T23:00:12.159Z,66.09
2023-04-18T23:02:38.582Z,65.33
2023-04-18T23:05:07.312Z,66.00
2023-04-18T23:07:33.632Z,65.76
2023-04-18T23:09:59.902Z,66.54
2023-04-18T23:12:26.724Z,66.38
2023-04-18T23:14:53.005Z,66.50
2023-04-18T23:17:19.319Z,66.75
2023-04-18T23:19:45.647Z,66.44
2023-04-18T23:22:11.979Z,65.94
2023-04-18T23:24:38.750Z,66.44
2023-04-18T23:27:05.158Z,66.47
2023-04-18T23:29:31.486Z,66.16
2023-04-18T23:31:57.826Z,65.38
2023-04-18T23:34:24.204Z,66.45
2023-04-18T23:36:50.520Z,66.46
2023-04-18T23:39:18.390Z,66.64
2023-04-18T23:41:45.498Z,67.14
2023-04-18T23:44:11.793Z,65.86
2023-04-18T23:46:38.103Z,66.15
2023-04-18T23:49:04.400Z,66.01
2023-04-18T23:51:30.962Z,67.72
2023-04-18T23:53:57.214Z,66.60
2023-04-18T23:56:23.611Z,67.25
2023-04-18T23:58:50.099Z,66.63
